createdAt,value
2023-03-16T00:00:55.266Z,95278.00
2023-03-16T00:01:55.379Z,95280.00
2023-03-16T00:02:55.377Z,95278.00
2023-03-16T00:03:55.424Z,95278.00
2023-03-16T00:04:55.461Z,95276.00
2023-03-16T00:05:55.532Z,95276.00
2023-03-16T00:06:55.546Z,95280.00
2023-03-16T00:07:55.614Z,95282.00
2023-03-16T00:08:55.652Z,95282.00
2023-03-16T00:09:55.733Z,95284.00
2023-03-16T00:10:55.754Z,95286.00
2023-03-16T00:11:55.809Z,95282.00
2023-03-16T00:12:55.825Z,95280.00
2023-03-16T00:13:55.910Z,95282.00
2023-03-16T00:14:55.921Z,95278.00
2023-03-16T00:15:56.012Z,95280.00
2023-03-16T00:16:56.036Z,95280.00
2023-03-16T00:17:56.069Z,95282.00
2023-03-16T00:18:56.143Z,95282.00
2023-03-16T00:19:56.153Z,95284.00
2023-03-16T00:20:56.210Z,95284.00
2023-03-16T00:21:56.266Z,95284.00
2023-03-16T00:22:56.437Z,95284.00
2023-03-16T00:23:56.365Z,95286.00
2023-03-16T00:24:56.381Z,95286.00
2023-03-16T00:25:56.470Z,95284.00
2023-03-16T00:26:56.513Z,95284.00
2023-03-16T00:27:56.539Z,95286.00
2023-03-16T00:28:56.607Z,95284.00
2023-03-16T00:29:56.997Z,95288.00
2023-03-16T00:30:56.680Z,95288.00
2023-03-16T00:31:56.767Z,95292.00
2023-03-16T00:32:56.785Z,95290.00
2023-03-16T00:33:56.825Z,95290.00
2023-03-16T00:34:56.868Z,95290.00
2023-03-16T00:35:56.976Z,95288.00
2023-03-16T00:36:56.972Z,95284.00
2023-03-16T00:37:57.041Z,95286.00
2023-03-16T00:38:57.046Z,95286.00
2023-03-16T00:39:57.128Z,95284.00
2023-03-16T00:40:57.173Z,95284.00
2023-03-16T00:41:57.216Z,95284.00
2023-03-16T00:42:57.506Z,95284.00
2023-03-16T00:43:57.340Z,95286.00
2023-03-16T00:44:57.377Z,95286.00
2023-03-16T00:45:57.428Z,95288.00
2023-03-16T00:46:57.439Z,95288.00
2023-03-16T00:47:57.457Z,95288.00
2023-03-16T00:48:57.524Z,95290.00
2023-03-16T00:49:57.565Z,95288.00
2023-03-16T00:50:57.598Z,95290.00
2023-03-16T00:51:57.667Z,95290.00
2023-03-16T00:52:57.696Z,95290.00
2023-03-16T00:53:57.765Z,95290.00
2023-03-16T00:54:57.808Z,95288.00
2023-03-16T00:55:57.848Z,95288.00
2023-03-16T00:56:57.915Z,95288.00
2023-03-16T00:57:57.934Z,95288.00
2023-03-16T00:58:58.087Z,95288.00
2023-03-16T00:59:58.066Z,95284.00
2023-03-16T01:00:58.105Z,95282.00
2023-03-16T01:01:58.178Z,95284.00
2023-03-16T01:02:58.274Z,95282.00
2023-03-16T01:03:58.254Z,95282.00
2023-03-16T01:04:58.328Z,95280.00
2023-03-16T01:05:58.365Z,95282.00
2023-03-16T01:06:58.404Z,95282.00
2023-03-16T01:07:58.423Z,95280.00
2023-03-16T01:08:58.475Z,95280.00
2023-03-16T01:09:58.523Z,95280.00
2023-03-16T01:10:58.604Z,95280.00
2023-03-16T01:11:58.615Z,95278.00
2023-03-16T01:12:58.674Z,95276.00
2023-03-16T01:13:58.727Z,95276.00
2023-03-16T01:14:58.761Z,95274.00
2023-03-16T01:15:58.801Z,95272.00
2023-03-16T01:16:58.968Z,95274.00
2023-03-16T01:17:58.900Z,95272.00
2023-03-16T01:18:58.974Z,95272.00
2023-03-16T01:19:58.990Z,95274.00
2023-03-16T01:21:59.098Z,95280.00
2023-03-16T01:22:59.158Z,95280.00
2023-03-16T01:23:59.206Z,95280.00
2023-03-16T01:24:59.262Z,95282.00
2023-03-16T01:25:59.338Z,95282.00
2023-03-16T01:26:59.337Z,95282.00
2023-03-16T02:16:01.706Z,95286.00
2023-03-16T02:17:01.738Z,95288.00
2023-03-16T02:18:01.724Z,95290.00
2023-03-16T02:19:01.783Z,95288.00
2023-03-16T02:20:01.843Z,95288.00
2023-03-16T02:21:01.879Z,95288.00
2023-03-16T02:22:01.902Z,95288.00
2023-03-16T02:23:01.933Z,95288.00
2023-03-16T02:24:02.007Z,95288.00
2023-03-16T02:25:02.075Z,95288.00
2023-03-16T02:26:02.117Z,95284.00
2023-03-16T02:27:02.134Z,95286.00
2023-03-16T02:28:02.205Z,95284.00
2023-03-16T02:29:02.242Z,95284.00
2023-03-16T02:30:02.282Z,95288.00
2023-03-16T02:31:02.389Z,95286.00
2023-03-16T02:32:02.397Z,95288.00
2023-03-16T02:33:02.537Z,95290.00
2023-03-16T02:34:02.507Z,95290.00
2023-03-16T02:35:02.554Z,95290.00
2023-03-16T02:36:02.647Z,95288.00
2023-03-16T02:37:02.676Z,95290.00
2023-03-16T02:38:02.685Z,95290.00
2023-03-16T02:39:02.734Z,95292.00
2023-03-16T02:40:02.803Z,95292.00
2023-03-16T02:42:02.875Z,95296.00
2023-03-16T02:43:02.909Z,95296.00
2023-03-16T02:44:02.939Z,95298.00
2023-03-16T02:45:02.938Z,95294.00
2023-03-16T02:46:03.024Z,95292.00
2023-03-16T02:47:03.014Z,95294.00
2023-03-16T02:48:03.029Z,95294.00
2023-03-16T02:49:03.176Z,95296.00
2023-03-16T02:50:03.074Z,95294.00
2023-03-16T02:51:03.131Z,95292.00
2023-03-16T02:52:03.130Z,95292.00
2023-03-16T02:53:03.129Z,95294.00
2023-03-16T02:54:03.142Z,95292.00
2023-03-16T02:55:03.257Z,95292.00
2023-03-16T02:56:03.274Z,95292.00
2023-03-16T02:57:03.361Z,95294.00
2023-03-16T02:58:03.278Z,95294.00
2023-03-16T02:59:03.274Z,95292.00
2023-03-16T03:00:03.312Z,95294.00
2023-03-16T03:01:04.113Z,95296.00
2023-03-16T06:24:11.672Z,95335.00
2023-03-16T06:25:11.760Z,95335.00
2023-03-16T06:26:11.802Z,95337.00
2023-03-16T06:27:11.860Z,95337.00
2023-03-16T06:28:11.917Z,95333.00
2023-03-16T06:29:11.953Z,95333.00
2023-03-16T06:30:12.080Z,95333.00
2023-03-16T06:31:12.117Z,95335.00
2023-03-16T06:32:12.108Z,95341.00
2023-03-16T06:33:12.187Z,95337.00
2023-03-16T06:34:12.763Z,95331.00
2023-03-16T06:35:12.249Z,95335.00
2023-03-16T06:36:12.513Z,95329.00
2023-03-16T06:37:12.427Z,95329.00
2023-03-16T06:38:12.365Z,95329.00
2023-03-16T06:39:12.781Z,95329.00
2023-03-16T06:40:12.492Z,95331.00
2023-03-16T06:41:12.587Z,95335.00
2023-03-16T06:42:12.490Z,95333.00
2023-03-16T06:43:13.287Z,95337.00
2023-03-16T06:44:12.514Z,95337.00
2023-03-16T06:45:12.529Z,95337.00
2023-03-16T06:47:12.502Z,95335.00
2023-03-16T06:48:12.561Z,95337.00
2023-03-16T06:49:12.515Z,95335.00
2023-03-16T06:50:12.546Z,95329.00
2023-03-16T06:51:12.546Z,95327.00
2023-03-16T06:52:12.474Z,95329.00
2023-03-16T06:53:12.488Z,95327.00
2023-03-16T06:54:12.755Z,95327.00
2023-03-16T06:55:12.495Z,95325.00
2023-03-16T06:56:12.471Z,95325.00
2023-03-16T06:57:12.482Z,95323.00
2023-03-16T06:58:12.429Z,95323.00
2023-03-16T06:59:12.426Z,95325.00
2023-03-16T07:00:13.099Z,95327.00
2023-03-16T07:01:12.524Z,95325.00
2023-03-16T07:02:12.398Z,95327.00
2023-03-16T07:03:12.420Z,95327.00
2023-03-16T07:04:12.495Z,95327.00
2023-03-16T07:05:12.765Z,95325.00
2023-03-16T07:06:12.366Z,95321.00
2023-03-16T07:07:12.383Z,95327.00
2023-03-16T07:08:12.400Z,95323.00
2023-03-16T07:09:12.384Z,95323.00
2023-03-16T07:10:12.356Z,95323.00
2023-03-16T07:11:12.369Z,95325.00
2023-03-16T07:12:12.370Z,95323.00
2023-03-16T07:13:12.335Z,95325.00
2023-03-16T07:14:12.321Z,95327.00
2023-03-16T07:15:12.864Z,95327.00
2023-03-16T07:16:12.344Z,95325.00
2023-03-16T07:17:12.294Z,95325.00
2023-03-16T07:18:12.314Z,95325.00
2023-03-16T07:19:12.295Z,95325.00
2023-03-16T07:20:13.364Z,95321.00
2023-03-16T07:21:12.281Z,95323.00
2023-03-16T07:22:12.261Z,95319.00
2023-03-16T07:23:12.270Z,95317.00
2023-03-16T07:24:12.280Z,95317.00
2023-03-16T07:25:12.313Z,95319.00
2023-03-16T07:26:12.217Z,95317.00
2023-03-16T07:27:12.709Z,95317.00
2023-03-16T07:28:12.276Z,95317.00
2023-03-16T07:29:12.274Z,95319.00
2023-03-16T07:30:12.312Z,95319.00
2023-03-16T07:31:12.392Z,95323.00
2023-03-16T07:32:12.528Z,95321.00
2023-03-16T07:33:12.497Z,95317.00
2023-03-16T07:34:12.558Z,95315.00
2023-03-16T07:35:12.780Z,95311.00
2023-03-16T07:36:12.710Z,95319.00
2023-03-16T07:37:12.756Z,95319.00
2023-03-16T07:38:12.781Z,95325.00
2023-03-16T07:39:12.863Z,95327.00
2023-03-16T07:40:13.295Z,95329.00
2023-03-16T07:41:12.981Z,95329.00
2023-03-16T07:42:13.065Z,95329.00
2023-03-16T07:43:13.020Z,95329.00
2023-03-16T07:44:13.103Z,95331.00
2023-03-16T07:45:13.109Z,95329.00
2023-03-16T07:46:13.236Z,95327.00
2023-03-16T07:47:13.187Z,95329.00
2023-03-16T07:48:13.179Z,95325.00
2023-03-16T07:49:13.310Z,95327.00
2023-03-16T07:50:13.354Z,95327.00
2023-03-16T07:51:13.302Z,95329.00
2023-03-16T07:52:13.365Z,95323.00
2023-03-16T07:53:13.514Z,95325.00
2023-03-16T07:54:13.437Z,95321.00
2023-03-16T07:55:13.788Z,95323.00
2023-03-16T07:56:13.790Z,95323.00
2023-03-16T07:57:13.486Z,95323.00
2023-03-16T07:58:13.549Z,95323.00
2023-03-16T07:59:13.614Z,95321.00
2023-03-16T08:00:13.616Z,95319.00
2023-03-16T08:01:13.639Z,95321.00
2023-03-16T08:02:13.772Z,95321.00
2023-03-16T08:03:13.727Z,95325.00
2023-03-16T08:04:13.717Z,95323.00
2023-03-16T08:05:13.756Z,95321.00
2023-03-16T08:06:13.765Z,95325.00
2023-03-16T08:07:13.784Z,95323.00
2023-03-16T08:08:13.783Z,95321.00
2023-03-16T08:09:13.857Z,95319.00
2023-03-16T08:10:13.907Z,95319.00
2023-03-16T08:11:14.317Z,95315.00
2023-03-16T08:12:13.877Z,95313.00
2023-03-16T08:13:13.850Z,95315.00
2023-03-16T08:14:13.847Z,95309.00
2023-03-16T08:15:13.896Z,95313.00
2023-03-16T08:16:13.920Z,95311.00
2023-03-16T08:17:13.911Z,95309.00
2023-03-16T08:18:13.876Z,95309.00
2023-03-16T08:19:13.924Z,95307.00
2023-03-16T08:20:13.916Z,95305.00
2023-03-16T08:21:14.338Z,95303.00
2023-03-16T08:22:13.908Z,95307.00
2023-03-16T08:23:13.892Z,95301.00
2023-03-16T08:24:13.908Z,95305.00
2023-03-16T08:25:13.870Z,95303.00
2023-03-16T08:26:13.915Z,95301.00
2023-03-16T08:27:13.855Z,95300.00
2023-03-16T08:28:13.921Z,95298.00
2023-03-16T08:29:13.992Z,95301.00
2023-03-16T08:30:13.955Z,95298.00
2023-03-16T08:31:14.441Z,95296.00
2023-03-16T08:32:13.950Z,95296.00
2023-03-16T08:33:13.901Z,95292.00
2023-03-16T08:34:13.973Z,95292.00
2023-03-16T08:35:14.055Z,95294.00
2023-03-16T08:36:14.379Z,95290.00
2023-03-16T08:37:13.986Z,95292.00
2023-03-16T08:38:13.943Z,95288.00
2023-03-16T08:39:13.968Z,95290.00
2023-03-16T08:40:14.031Z,95288.00
2023-03-16T08:41:14.323Z,95286.00
2023-03-16T08:42:13.975Z,95290.00
2023-03-16T08:43:13.954Z,95290.00
2023-03-16T08:44:13.959Z,95292.00
2023-03-16T08:45:14.549Z,95292.00
2023-03-16T08:46:14.062Z,95290.00
2023-03-16T08:47:13.951Z,95294.00
2023-03-16T08:48:13.952Z,95292.00
2023-03-16T08:49:14.939Z,95290.00
2023-03-16T08:50:13.925Z,95288.00
2023-03-16T08:51:14.385Z,95290.00
2023-03-16T08:52:13.917Z,95288.00
2023-03-16T08:53:13.941Z,95288.00
2023-03-16T08:54:13.935Z,95286.00
2023-03-16T08:56:13.916Z,95282.00
2023-03-16T08:57:13.917Z,95284.00
2023-03-16T08:58:14.066Z,95280.00
2023-03-16T08:59:23.541Z,95280.00
2023-03-16T09:00:15.059Z,95278.00
2023-03-16T09:02:14.132Z,95276.00
2023-03-16T09:03:14.029Z,95276.00
2023-03-16T14:26:21.644Z,94900.00
2023-03-16T14:27:21.757Z,94898.00
2023-03-16T14:28:21.782Z,94900.00
2023-03-16T14:29:21.915Z,94898.00
2023-03-16T14:30:21.890Z,94898.00
2023-03-16T14:31:22.047Z,94898.00
2023-03-16T14:32:22.003Z,94896.00
2023-03-16T14:33:22.038Z,94900.00
2023-03-16T14:34:22.076Z,94900.00
2023-03-16T14:35:22.156Z,94898.00
2023-03-16T14:36:22.201Z,94898.00
2023-03-16T14:37:22.232Z,94898.00
2023-03-16T14:38:22.332Z,94898.00
2023-03-16T14:39:22.371Z,94896.00
2023-03-16T14:40:22.420Z,94896.00
2023-03-16T14:41:22.479Z,94896.00
2023-03-16T14:42:22.506Z,94896.00
2023-03-16T14:43:22.564Z,94894.00
2023-03-16T14:44:22.645Z,94892.00
2023-03-16T14:45:22.665Z,94888.00
2023-03-16T14:46:22.738Z,94888.00
2023-03-16T14:47:22.790Z,94890.00
2023-03-16T14:48:22.966Z,94892.00
2023-03-16T14:49:22.895Z,94894.00
2023-03-16T14:50:22.923Z,94890.00
2023-03-16T14:51:22.989Z,94892.00
2023-03-16T14:52:22.981Z,94898.00
2023-03-16T14:53:23.064Z,94898.00
2023-03-16T14:54:23.135Z,94894.00
2023-03-16T14:55:23.180Z,94894.00
2023-03-16T14:56:23.195Z,94892.00
2023-03-16T14:57:23.299Z,94892.00
2023-03-16T14:58:23.301Z,94890.00
2023-03-16T14:59:23.379Z,94890.00
2023-03-16T15:00:23.458Z,94890.00
2023-03-16T15:01:23.508Z,94880.00
2023-03-16T15:02:23.562Z,94880.00
2023-03-16T15:03:23.556Z,94890.00
2023-03-16T15:04:23.620Z,94888.00
2023-03-16T15:05:23.673Z,94880.00
2023-03-16T15:06:23.722Z,94890.00
2023-03-16T15:07:23.791Z,94890.00
2023-03-16T15:08:23.824Z,94880.00
2023-03-16T15:09:23.905Z,94888.00
2023-03-16T15:10:23.943Z,94888.00
2023-03-16T15:11:23.971Z,94880.00
2023-03-16T15:12:24.015Z,94876.00
2023-03-16T15:13:24.085Z,94880.00
2023-03-16T15:14:24.356Z,94878.00
2023-03-16T15:15:24.208Z,94878.00
2023-03-16T15:16:24.344Z,94876.00
2023-03-16T15:17:24.325Z,94876.00
2023-03-16T15:18:24.368Z,94874.00
2023-03-16T15:19:24.393Z,94870.00
2023-03-16T15:20:24.482Z,94876.00
2023-03-16T15:21:24.557Z,94870.00
2023-03-16T15:22:24.556Z,94874.00
2023-03-16T15:23:24.650Z,94876.00
2023-03-16T15:24:24.716Z,94874.00
2023-03-16T15:25:24.722Z,94874.00
2023-03-16T15:26:25.338Z,94878.00
2023-03-16T15:27:24.846Z,94878.00
2023-03-16T15:28:24.900Z,94888.00
2023-03-16T15:29:24.948Z,94888.00
2023-03-16T15:30:24.986Z,94888.00
2023-03-16T15:31:25.107Z,94888.00
2023-03-16T15:32:25.185Z,94878.00
2023-03-16T15:33:25.200Z,94888.00
2023-03-16T15:34:25.235Z,94888.00
2023-03-16T15:35:25.262Z,94878.00
2023-03-16T15:36:25.342Z,94876.00
2023-03-16T15:37:25.385Z,94878.00
2023-03-16T15:38:25.486Z,94878.00
2023-03-16T15:39:25.535Z,94878.00
2023-03-16T15:40:25.617Z,94876.00
2023-03-16T15:41:26.957Z,94878.00
2023-03-16T15:42:25.680Z,94878.00
2023-03-16T15:43:25.644Z,94878.00
2023-03-16T15:44:25.642Z,94876.00
2023-03-16T15:45:25.623Z,94880.00
2023-03-16T15:46:25.681Z,94876.00
2023-03-16T15:47:25.588Z,94876.00
2023-03-16T15:48:25.611Z,94874.00
2023-03-16T15:49:27.014Z,94874.00
2023-03-16T15:50:25.569Z,94872.00
2023-03-16T15:51:25.574Z,94870.00
2023-03-16T15:52:25.556Z,94870.00
2023-03-16T15:53:30.641Z,94870.00
2023-03-16T15:54:26.559Z,94868.00
2023-03-16T15:55:25.545Z,94868.00
2023-03-16T15:56:25.516Z,94870.00
2023-03-16T15:57:25.524Z,94872.00
2023-03-16T15:58:25.521Z,94868.00
2023-03-16T15:59:25.537Z,94872.00
2023-03-16T16:00:25.536Z,94868.00
2023-03-16T16:01:25.566Z,94870.00
2023-03-16T16:02:26.486Z,94872.00
2023-03-16T16:03:25.597Z,94872.00
2023-03-16T16:04:25.730Z,94874.00
2023-03-16T16:05:25.733Z,94874.00
2023-03-16T16:06:25.789Z,94872.00
2023-03-16T16:07:25.827Z,94872.00
2023-03-16T16:08:25.911Z,94874.00
2023-03-16T16:09:25.943Z,94874.00
2023-03-16T16:10:26.038Z,94872.00
2023-03-16T16:11:26.063Z,94874.00
2023-03-16T16:12:26.132Z,94876.00
2023-03-16T16:13:34.088Z,94876.00
2023-03-16T16:14:27.204Z,94878.00
2023-03-16T16:15:26.187Z,94876.00
2023-03-16T16:16:26.218Z,94878.00
2023-03-16T16:17:43.832Z,94880.00
2023-03-16T16:18:27.194Z,94888.00
2023-03-16T16:19:26.148Z,94888.00
2023-03-16T16:20:26.216Z,94880.00
2023-03-16T16:21:26.192Z,94890.00
2023-03-16T16:22:26.137Z,94876.00
2023-03-16T16:23:26.139Z,94888.00
2023-03-16T16:24:26.153Z,94880.00
2023-03-16T16:25:26.146Z,94880.00
2023-03-16T16:26:27.921Z,94880.00
2023-03-16T16:27:27.163Z,94880.00
2023-03-16T16:28:26.186Z,94888.00
2023-03-16T16:29:26.186Z,94888.00
2023-03-16T16:30:26.201Z,94880.00
2023-03-16T16:31:26.190Z,94880.00
2023-03-16T16:32:26.150Z,94892.00
2023-03-16T16:33:26.116Z,94892.00
2023-03-16T16:34:26.146Z,94894.00
2023-03-16T16:35:26.189Z,94896.00
2023-03-16T16:36:26.177Z,94894.00
2023-03-16T16:37:26.196Z,94894.00
2023-03-16T16:38:26.244Z,94894.00
2023-03-16T16:39:26.322Z,94894.00
2023-03-16T16:40:26.318Z,94896.00
2023-03-16T16:41:26.370Z,94898.00
2023-03-16T16:42:26.445Z,94900.00
2023-03-16T16:43:26.441Z,94898.00
2023-03-16T16:44:26.497Z,94902.00
2023-03-16T16:45:26.558Z,94902.00
2023-03-16T16:46:26.724Z,94900.00
2023-03-16T16:47:26.715Z,94900.00
2023-03-16T16:48:26.797Z,94900.00
2023-03-16T16:49:26.840Z,94903.00
2023-03-16T16:50:26.900Z,94903.00
2023-03-16T16:51:26.910Z,94907.00
2023-03-16T16:52:26.966Z,94909.00
2023-03-16T16:53:26.998Z,94907.00
2023-03-16T16:54:27.367Z,94909.00
2023-03-16T16:55:27.422Z,94911.00
2023-03-16T16:56:27.105Z,94913.00
2023-03-16T16:57:27.103Z,94911.00
2023-03-16T16:58:27.208Z,94915.00
2023-03-16T16:59:27.191Z,94911.00
2023-03-16T17:00:27.228Z,94913.00
2023-03-16T17:01:27.245Z,94913.00
2023-03-16T17:02:27.233Z,94915.00
2023-03-16T17:03:27.259Z,94917.00
2023-03-16T17:07:27.332Z,94919.00
2023-03-16T17:08:27.331Z,94923.00
2023-03-16T17:09:27.349Z,94927.00
2023-03-16T17:10:27.308Z,94925.00
2023-03-16T17:11:27.350Z,94931.00
2023-03-16T17:12:27.383Z,94931.00
2023-03-16T17:13:27.467Z,94933.00
2023-03-16T17:14:27.505Z,94937.00
2023-03-16T17:15:28.052Z,94939.00
2023-03-16T17:16:27.588Z,94941.00
2023-03-16T17:17:27.517Z,94943.00
2023-03-16T17:18:27.552Z,94945.00
2023-03-16T17:19:27.511Z,94945.00
2023-03-16T17:20:27.614Z,94945.00
2023-03-16T17:21:27.685Z,94945.00
2023-03-16T17:22:27.868Z,94945.00
2023-03-16T17:23:27.902Z,94945.00
2023-03-16T17:24:27.848Z,94945.00
2023-03-16T17:25:28.170Z,94947.00
2023-03-16T17:26:27.840Z,94949.00
2023-03-16T17:27:27.926Z,94949.00
2023-03-16T17:28:28.035Z,94951.00
2023-03-16T17:29:28.086Z,94954.00
2023-03-16T17:30:28.100Z,94954.00
2023-03-16T17:31:28.182Z,94958.00
2023-03-16T17:32:28.087Z,94958.00
2023-03-16T17:33:28.073Z,94960.00
2023-03-16T17:34:28.090Z,94962.00
2023-03-16T17:35:28.367Z,94962.00
2023-03-16T17:36:28.231Z,94968.00
2023-03-16T17:37:28.301Z,94968.00
2023-03-16T17:38:28.391Z,94968.00
2023-03-16T17:39:28.459Z,94972.00
2023-03-16T17:40:28.924Z,94976.00
2023-03-16T17:41:28.491Z,94976.00
2023-03-16T17:42:28.457Z,94980.00
2023-03-16T17:43:28.498Z,94980.00
2023-03-16T17:44:28.502Z,94978.00
2023-03-16T17:45:28.824Z,94982.00
2023-03-16T17:46:28.607Z,94984.00
2023-03-16T17:47:28.662Z,94988.00
2023-03-16T17:48:28.727Z,94988.00
2023-03-16T17:49:28.820Z,94988.00
2023-03-16T17:50:29.130Z,94990.00
2023-03-16T17:51:28.883Z,94990.00
2023-03-16T17:52:28.992Z,94994.00
2023-03-16T17:53:28.974Z,94996.00
2023-03-16T17:54:28.956Z,94996.00
2023-03-16T17:55:28.994Z,94998.00
2023-03-16T17:56:28.981Z,94998.00
2023-03-16T17:57:28.997Z,94996.00
2023-03-16T17:58:29.079Z,95002.00
2023-03-16T17:59:29.170Z,94998.00
2023-03-16T18:00:29.409Z,95000.00
2023-03-16T18:01:29.250Z,95002.00
2023-03-16T18:02:29.242Z,95000.00
2023-03-16T19:33:31.675Z,95066.00
2023-03-16T19:34:31.712Z,95064.00
2023-03-16T19:35:50.219Z,95066.00
2023-03-16T19:36:32.759Z,95068.00
2023-03-16T19:37:31.712Z,95070.00
2023-03-16T19:38:31.747Z,95068.00
2023-03-16T19:39:31.701Z,95068.00
2023-03-16T19:40:31.728Z,95072.00
2023-03-16T19:41:31.701Z,95070.00
2023-03-16T19:42:31.669Z,95072.00
2023-03-16T19:43:31.688Z,95072.00
2023-03-16T19:44:31.642Z,95072.00
2023-03-16T19:45:31.946Z,95072.00
2023-03-16T19:48:31.690Z,95074.00
2023-03-16T19:49:31.681Z,95076.00
2023-03-16T19:50:31.632Z,95076.00
2023-03-16T19:51:31.677Z,95076.00
2023-03-16T19:52:31.699Z,95074.00
2023-03-16T19:53:31.742Z,95078.00
2023-03-16T19:54:31.772Z,95076.00
2023-03-16T19:55:32.038Z,95078.00
2023-03-16T19:56:31.877Z,95080.00
2023-03-16T19:57:31.889Z,95082.00
2023-03-16T19:58:31.934Z,95084.00
2023-03-16T19:59:31.936Z,95084.00
2023-03-16T20:00:31.999Z,95084.00
2023-03-16T20:01:32.867Z,95082.00
2023-03-16T20:02:32.048Z,95084.00
2023-03-16T20:03:32.104Z,95080.00
2023-03-16T20:04:32.222Z,95082.00
2023-03-16T20:05:32.367Z,95082.00
2023-03-16T20:06:32.188Z,95084.00
2023-03-16T20:07:32.213Z,95086.00
2023-03-16T20:08:32.287Z,95088.00
2023-03-16T20:09:32.317Z,95084.00
2023-03-16T20:10:32.398Z,95086.00
2023-03-16T20:11:32.407Z,95086.00
2023-03-16T20:12:32.411Z,95086.00
2023-03-16T20:13:32.467Z,95086.00
2023-03-16T20:14:32.473Z,95090.00
2023-03-16T20:15:32.577Z,95090.00
2023-03-16T20:16:32.591Z,95092.00
2023-03-16T20:17:32.592Z,95090.00
2023-03-16T20:18:32.609Z,95090.00
2023-03-16T20:19:32.651Z,95092.00
2023-03-16T20:20:32.702Z,95094.00
2023-03-16T20:21:32.737Z,95094.00
2023-03-16T20:22:32.765Z,95094.00
2023-03-16T20:23:32.826Z,95094.00
2023-03-16T20:24:32.881Z,95094.00
2023-03-16T20:25:32.922Z,95094.00
2023-03-16T20:26:32.956Z,95096.00
2023-03-16T20:27:32.983Z,95099.00
2023-03-16T20:28:33.012Z,95101.00
2023-03-16T20:29:33.041Z,95101.00
2023-03-16T20:30:33.145Z,95099.00
2023-03-16T20:31:33.077Z,95101.00
2023-03-16T20:32:33.217Z,95105.00
2023-03-16T20:33:33.172Z,95103.00
2023-03-16T20:34:33.224Z,95107.00
2023-03-16T20:35:33.364Z,95107.00
2023-03-16T20:36:33.283Z,95107.00
2023-03-16T20:37:33.306Z,95109.00
2023-03-16T20:38:33.364Z,95109.00
2023-03-16T20:39:33.411Z,95109.00
2023-03-16T20:40:33.428Z,95111.00
2023-03-16T20:41:33.468Z,95113.00
2023-03-16T20:42:33.512Z,95111.00
2023-03-16T20:43:33.527Z,95117.00
2023-03-16T20:44:33.559Z,95121.00
2023-03-16T20:45:33.657Z,95119.00
2023-03-16T20:46:33.761Z,95117.00
2023-03-16T20:47:33.706Z,95117.00
2023-03-16T20:48:33.736Z,95119.00
2023-03-16T20:49:33.773Z,95121.00
2023-03-16T20:50:33.794Z,95119.00
2023-03-16T20:51:33.835Z,95119.00
2023-03-16T20:52:33.859Z,95125.00
